»·PEaware :: COA5374 KDEN-KHDN

COA5374 :: KDEN-KHDN

FLIGHT INFORMATION

Flight Status: Arrived
Operator:
Continental Air Lines
More flights by this operator :: More flights under this callsign
Pilot: Andrew C. (28419)
Aircraft: BOEING 737-800
(B738)
More flights by this aircraft type
Origin: KDEN Denver Intl
United States
Destination: KHDN Yampa Valley
United States
More flights between these airports :: More routes between these airports
Route: +ZIMMR1 CHNGY
File this flight plan on PilotEdge
Remarks: RMK / SIMBRIEF
Altitude:
(Current/Filed)
24,000ft
Speed:
(Current/Filed)
399kts
Departed: 01-Jul-20 06:11 PM
Arrived: 01-Jul-20 06:37 PM
Distance/Time
Traveled:
123nm/0:26
Distance/Time
To Go:
Arrived

Flight Plot

Page will automatically refresh every two minutes.

Flight plan parsing failed; only flown route is shown


Map Options




Map Legend


Flown Route
Filed Route
Departure Airport
Arrival Airport
Navaid (VOR, NDB)
Fix

Horizontal Profiles

Position Reports

Time Latitude Longitude Heading Altitude Ground
Speed
01-Jul-20 17:50 39.858039 -104.677311 0 5444ft 0kts
01-Jul-20 17:51 39.858039 -104.677311 0 5444ft 0kts
01-Jul-20 17:52 39.858039 -104.677311 0 5444ft 0kts
01-Jul-20 17:53 39.858039 -104.677311 0 5444ft 0kts
01-Jul-20 17:54 39.858039 -104.677311 0 5444ft 0kts
01-Jul-20 17:55 39.858039 -104.677311 0 5444ft 0kts
01-Jul-20 17:56 39.857941 -104.677312 0 5444ft 2kts
01-Jul-20 17:57 39.857412 -104.677213 310 5444ft 2kts
01-Jul-20 17:58 39.857335 -104.676936 269 5444ft 0kts
01-Jul-20 17:59 39.857335 -104.676936 269 5444ft 0kts
01-Jul-20 18:00 39.857335 -104.677072 269 5444ft 1kts
01-Jul-20 18:01 39.857346 -104.678742 271 5444ft 14kts
01-Jul-20 18:02 39.857107 -104.683776 318 5444ft 15kts
01-Jul-20 18:03 39.862241 -104.683948 1 5444ft 22kts
01-Jul-20 18:04 39.869441 -104.683828 358 5444ft 29kts
01-Jul-20 18:05 39.875924 -104.684943 358 5444ft 17kts
01-Jul-20 18:06 39.884124 -104.684825 0 5444ft 34kts
01-Jul-20 18:07 39.893209 -104.684721 0 5444ft 30kts
01-Jul-20 18:08 39.896925 -104.685298 274 5444ft 0kts
01-Jul-20 18:09 39.896920 -104.686597 261 5444ft 8kts
01-Jul-20 18:10 39.880886 -104.687021 177 5448ft 163kts
01-Jul-20 18:11 39.828706 -104.691685 207 7215ft 228kts
01-Jul-20 18:12 39.823507 -104.779025 312 9453ft 302kts
01-Jul-20 18:13 39.890272 -104.851621 311 10022ft 314kts
01-Jul-20 18:14 39.931114 -104.954936 278 11894ft 313kts
01-Jul-20 18:16 39.936571 -105.074180 270 12431ft 331kts
01-Jul-20 18:17 39.939829 -105.184124 270 15529ft 274kts
01-Jul-20 18:18 39.949442 -105.300370 275 15988ft 361kts
01-Jul-20 18:19 39.960372 -105.433513 272 18264ft 375kts
01-Jul-20 18:20 39.969162 -105.570877 271 20560ft 383kts
01-Jul-20 18:21 39.977094 -105.711766 269 22722ft 389kts
01-Jul-20 18:22 39.983538 -105.855205 270 24057ft 402kts
01-Jul-20 18:23 39.990608 -105.999719 270 24142ft 389kts
01-Jul-20 18:24 39.997053 -106.131845 269 24201ft 348kts
01-Jul-20 18:25 40.003202 -106.262822 270 23462ft 350kts
01-Jul-20 18:26 40.014225 -106.389164 289 22171ft 372kts
01-Jul-20 18:27 40.068753 -106.502707 300 20175ft 371kts
01-Jul-20 18:28 40.122952 -106.608368 300 18295ft 337kts
01-Jul-20 18:29 40.175299 -106.710712 299 16295ft 340kts
01-Jul-20 18:29 40.218786 -106.795654 300 14774ft 335kts
01-Jul-20 18:31 40.271501 -106.909701 305 12775ft 273kts
01-Jul-20 18:32 40.319907 -106.978373 309 11426ft 253kts
01-Jul-20 18:32 40.359974 -107.034413 310 10320ft 250kts
01-Jul-20 18:34 40.411644 -107.106559 311 8665ft 215kts
01-Jul-20 18:34 40.441731 -107.148237 318 7679ft 163kts
01-Jul-20 18:35 40.471829 -107.189452 291 6947ft 158kts
01-Jul-20 18:37 40.484230 -107.222536 62 6595ft 19kts
01-Jul-20 18:37 40.484708 -107.221929 26 6596ft 0kts
01-Jul-20 18:38 40.484708 -107.221929 26 6596ft 0kts
01-Jul-20 18:39 40.484708 -107.221929 26 6596ft 0kts
01-Jul-20 18:40 40.484708 -107.221929 26 6596ft 0kts
01-Jul-20 18:41 40.484708 -107.221929 26 6596ft 0kts
01-Jul-20 18:42 40.484708 -107.221929 26 6596ft 0kts

Navigation Log

Ident Type
Flight plan parsing failed, navigation log unavailable